sensor_id;sensor_type;location;lat;lon;timestamp;pressure;altitude;pressure_sealevel;temperature;humidity
20624;BME280;10471;42.736;23.346;2023-05-03T00:00:06;95866.56;;;12.58;57.64
20624;BME280;10471;42.736;23.346;2023-05-03T00:02:33;95877.94;;;12.58;57.01
20624;BME280;10471;42.736;23.346;2023-05-03T00:04:59;95861.53;;;12.61;57.73
20624;BME280;10471;42.736;23.346;2023-05-03T00:07:25;95865.00;;;12.57;58.51
20624;BME280;10471;42.736;23.346;2023-05-03T00:09:50;95858.13;;;12.56;57.00
20624;BME280;10471;42.736;23.346;2023-05-03T00:12:16;95862.94;;;12.49;56.93
20624;BME280;10471;42.736;23.346;2023-05-03T00:14:41;95859.47;;;12.53;57.36
20624;BME280;10471;42.736;23.346;2023-05-03T00:17:06;95863.19;;;12.52;57.43
20624;BME280;10471;42.736;23.346;2023-05-03T00:19:32;95868.22;;;12.49;58.43
20624;BME280;10471;42.736;23.346;2023-05-03T00:21:59;95870.34;;;12.47;56.41
20624;BME280;10471;42.736;23.346;2023-05-03T00:24:25;95875.63;;;12.47;56.54
20624;BME280;10471;42.736;23.346;2023-05-03T00:26:51;95880.44;;;12.40;57.87
20624;BME280;10471;42.736;23.346;2023-05-03T00:29:16;95887.53;;;12.44;57.95
20624;BME280;10471;42.736;23.346;2023-05-03T00:31:43;95889.38;;;12.49;55.97
20624;BME280;10471;42.736;23.346;2023-05-03T00:34:08;95874.06;;;12.46;56.71
20624;BME280;10471;42.736;23.346;2023-05-03T00:36:34;95883.31;;;12.48;56.66
20624;BME280;10471;42.736;23.346;2023-05-03T00:38:59;95876.44;;;12.47;56.82
20624;BME280;10471;42.736;23.346;2023-05-03T00:41:25;95887.53;;;12.49;56.53
20624;BME280;10471;42.736;23.346;2023-05-03T00:43:50;95886.69;;;12.54;57.08
20624;BME280;10471;42.736;23.346;2023-05-03T00:46:16;95887.25;;;12.51;56.04
20624;BME280;10471;42.736;23.346;2023-05-03T00:48:41;95892.03;;;12.44;56.51
20624;BME280;10471;42.736;23.346;2023-05-03T00:51:07;95880.13;;;12.46;57.50
20624;BME280;10471;42.736;23.346;2023-05-03T00:53:33;95886.25;;;12.37;56.82
20624;BME280;10471;42.736;23.346;2023-05-03T00:55:59;95895.28;;;12.36;57.76
20624;BME280;10471;42.736;23.346;2023-05-03T00:58:25;95897.88;;;12.41;57.83
20624;BME280;10471;42.736;23.346;2023-05-03T01:00:51;95890.72;;;12.42;57.53
20624;BME280;10471;42.736;23.346;2023-05-03T01:03:17;95886.22;;;12.42;58.38
20624;BME280;10471;42.736;23.346;2023-05-03T01:08:37;95890.53;;;12.33;59.44
20624;BME280;10471;42.736;23.346;2023-05-03T01:13:39;95888.19;;;12.27;59.13
20624;BME280;10471;42.736;23.346;2023-05-03T01:18:47;95877.63;;;12.22;59.93
20624;BME280;10471;42.736;23.346;2023-05-03T01:21:19;95878.41;;;12.22;60.33
20624;BME280;10471;42.736;23.346;2023-05-03T01:23:58;95874.47;;;12.20;60.38
20624;BME280;10471;42.736;23.346;2023-05-03T01:26:26;95865.19;;;12.22;61.00
20624;BME280;10471;42.736;23.346;2023-05-03T01:28:53;95861.00;;;12.16;61.63
20624;BME280;10471;42.736;23.346;2023-05-03T01:31:27;95861.03;;;12.11;61.31
20624;BME280;10471;42.736;23.346;2023-05-03T01:36:38;95851.06;;;11.98;61.51
20624;BME280;10471;42.736;23.346;2023-05-03T01:39:07;95846.84;;;11.97;61.66
20624;BME280;10471;42.736;23.346;2023-05-03T01:41:36;95852.16;;;11.92;62.50
20624;BME280;10471;42.736;23.346;2023-05-03T01:44:03;95860.66;;;11.84;62.79
20624;BME280;10471;42.736;23.346;2023-05-03T01:46:29;95856.94;;;11.85;61.50
20624;BME280;10471;42.736;23.346;2023-05-03T01:48:55;95851.66;;;11.85;61.41
20624;BME280;10471;42.736;23.346;2023-05-03T01:51:20;95847.94;;;11.86;61.95
20624;BME280;10471;42.736;23.346;2023-05-03T01:53:45;95842.66;;;11.86;61.83
20624;BME280;10471;42.736;23.346;2023-05-03T01:56:11;95845.88;;;11.83;63.41
20624;BME280;10471;42.736;23.346;2023-05-03T01:58:36;95840.34;;;11.75;63.24
20624;BME280;10471;42.736;23.346;2023-05-03T02:01:03;95842.72;;;11.72;64.25
20624;BME280;10471;42.736;23.346;2023-05-03T02:03:30;95832.94;;;11.72;64.46
20624;BME280;10471;42.736;23.346;2023-05-03T02:05:55;95836.41;;;11.73;63.91
20624;BME280;10471;42.736;23.346;2023-05-03T02:08:20;95836.44;;;11.63;64.96
20624;BME280;10471;42.736;23.346;2023-05-03T02:10:46;95831.16;;;11.63;64.86
20624;BME280;10471;42.736;23.346;2023-05-03T02:13:11;95826.41;;;11.60;65.04
20624;BME280;10471;42.736;23.346;2023-05-03T02:15:37;95841.19;;;11.56;65.23
20624;BME280;10471;42.736;23.346;2023-05-03T02:18:02;95839.34;;;11.61;65.06
20624;BME280;10471;42.736;23.346;2023-05-03T02:20:28;95835.41;;;11.59;65.88
20624;BME280;10471;42.736;23.346;2023-05-03T02:22:56;95842.53;;;11.53;67.13
20624;BME280;10471;42.736;23.346;2023-05-03T02:25:22;95843.31;;;11.54;67.85
20624;BME280;10471;42.736;23.346;2023-05-03T02:27:47;95840.16;;;11.52;68.27
20624;BME280;10471;42.736;23.346;2023-05-03T02:30:12;95840.16;;;11.42;68.89
20624;BME280;10471;42.736;23.346;2023-05-03T02:32:38;95838.84;;;11.44;69.26
20624;BME280;10471;42.736;23.346;2023-05-03T02:35:04;95842.78;;;11.47;69.02
20624;BME280;10471;42.736;23.346;2023-05-03T02:37:30;95840.66;;;11.49;69.87
20624;BME280;10471;42.736;23.346;2023-05-03T02:39:56;95823.28;;;11.53;68.96
20624;BME280;10471;42.736;23.346;2023-05-03T02:42:22;95828.03;;;11.51;70.75
20624;BME280;10471;42.736;23.346;2023-05-03T02:44:48;95848.34;;;11.55;71.72
20624;BME280;10471;42.736;23.346;2023-05-03T02:47:13;95848.06;;;11.57;71.58
20624;BME280;10471;42.736;23.346;2023-05-03T02:49:38;95853.38;;;11.52;71.61
20624;BME280;10471;42.736;23.346;2023-05-03T02:52:04;95848.09;;;11.52;72.71
20624;BME280;10471;42.736;23.346;2023-05-03T02:54:29;95844.91;;;11.55;72.82
20624;BME280;10471;42.736;23.346;2023-05-03T02:56:55;95845.94;;;11.49;73.03
20624;BME280;10471;42.736;23.346;2023-05-03T02:59:20;95840.66;;;11.49;72.04
20624;BME280;10471;42.736;23.346;2023-05-03T03:01:46;95842.25;;;11.50;69.50
20624;BME280;10471;42.736;23.346;2023-05-03T03:04:11;95838.59;;;11.51;70.81
20624;BME280;10471;42.736;23.346;2023-05-03T03:06:37;95849.91;;;11.46;71.42
20624;BME280;10471;42.736;23.346;2023-05-03T03:09:02;95858.66;;;11.52;71.67
20624;BME280;10471;42.736;23.346;2023-05-03T03:11:28;95862.88;;;11.53;71.60
20624;BME280;10471;42.736;23.346;2023-05-03T03:13:54;95866.56;;;11.52;71.77
20624;BME280;10471;42.736;23.346;2023-05-03T03:16:19;95859.94;;;11.44;70.85
20624;BME280;10471;42.736;23.346;2023-05-03T03:18:44;95863.34;;;11.50;72.59
20624;BME280;10471;42.736;23.346;2023-05-03T03:21:10;95859.16;;;11.54;72.42
20624;BME280;10471;42.736;23.346;2023-05-03T03:23:35;95863.34;;;11.50;73.39
20624;BME280;10471;42.736;23.346;2023-05-03T03:26:01;95861.28;;;11.47;74.84
20624;BME280;10471;42.736;23.346;2023-05-03T03:28:26;95859.41;;;11.47;74.71
20624;BME280;10471;42.736;23.346;2023-05-03T03:30:51;95867.84;;;11.49;73.89
20624;BME280;10471;42.736;23.346;2023-05-03T03:33:17;95861.28;;;11.47;76.93
20624;BME280;10471;42.736;23.346;2023-05-03T03:35:42;95866.56;;;11.52;76.06
20624;BME280;10471;42.736;23.346;2023-05-03T03:38:08;95877.13;;;11.52;76.25
20624;BME280;10471;42.736;23.346;2023-05-03T03:40:33;95866.56;;;11.52;75.41
20624;BME280;10471;42.736;23.346;2023-05-03T03:42:58;95878.16;;;11.56;74.96
20624;BME280;10471;42.736;23.346;2023-05-03T03:45:24;95890.03;;;11.48;74.09
20624;BME280;10471;42.736;23.346;2023-05-03T03:47:52;95882.88;;;11.49;74.05
20624;BME280;10471;42.736;23.346;2023-05-03T03:50:18;95875.50;;;11.46;74.38
20624;BME280;10471;42.736;23.346;2023-05-03T03:52:43;95884.47;;;11.45;73.13
20624;BME280;10471;42.736;23.346;2023-05-03T03:55:09;95878.94;;;11.46;72.77
20624;BME280;10471;42.736;23.346;2023-05-03T03:57:35;95880.53;;;11.52;73.02
20624;BME280;10471;42.736;23.346;2023-05-03T04:00:00;95886.59;;;11.48;74.24
20624;BME280;10471;42.736;23.346;2023-05-03T04:02:29;95883.97;;;11.43;75.17
20624;BME280;10471;42.736;23.346;2023-05-03T04:04:54;95894.28;;;11.39;74.67
20624;BME280;10471;42.736;23.346;2023-05-03T04:07:20;95898.72;;;11.44;75.54
20624;BME280;10471;42.736;23.346;2023-05-03T04:09:45;95895.59;;;11.42;76.10
20624;BME280;10471;42.736;23.346;2023-05-03T04:12:11;95900.31;;;11.45;76.91
20624;BME280;10471;42.736;23.346;2023-05-03T04:14:36;95907.72;;;11.48;76.30
20624;BME280;10471;42.736;23.346;2023-05-03T04:17:02;95910.09;;;11.49;75.86
20624;BME280;10471;42.736;23.346;2023-05-03T04:19:28;95920.38;;;11.56;75.89
20624;BME280;10471;42.736;23.346;2023-05-03T04:21:54;95910.38;;;11.53;76.20
20624;BME280;10471;42.736;23.346;2023-05-03T04:24:19;95912.75;;;11.54;75.75
20624;BME280;10471;42.736;23.346;2023-05-03T04:26:45;95916.16;;;11.60;75.72
20624;BME280;10471;42.736;23.346;2023-05-03T04:29:10;95919.84;;;11.54;76.67
20624;BME280;10471;42.736;23.346;2023-05-03T04:31:37;95924.09;;;11.55;75.78
20624;BME280;10471;42.736;23.346;2023-05-03T04:34:03;95933.59;;;11.51;75.37
20624;BME280;10471;42.736;23.346;2023-05-03T04:36:28;95933.06;;;11.54;77.88
20624;BME280;10471;42.736;23.346;2023-05-03T04:38:54;95929.91;;;11.52;79.12
20624;BME280;10471;42.736;23.346;2023-05-03T04:41:20;95939.13;;;11.54;80.36
20624;BME280;10471;42.736;23.346;2023-05-03T04:43:46;95942.06;;;11.53;83.28
20624;BME280;10471;42.736;23.346;2023-05-03T04:46:11;95948.34;;;11.47;85.74
20624;BME280;10471;42.736;23.346;2023-05-03T04:48:37;95949.41;;;11.46;90.75
20624;BME280;10471;42.736;23.346;2023-05-03T04:51:03;95955.22;;;11.28;92.24
20624;BME280;10471;42.736;23.346;2023-05-03T04:53:28;95965.78;;;11.28;98.72
20624;BME280;10471;42.736;23.346;2023-05-03T04:55:53;95973.94;;;11.36;100.00
20624;BME280;10471;42.736;23.346;2023-05-03T04:58:19;95973.16;;;11.31;100.00
20624;BME280;10471;42.736;23.346;2023-05-03T05:00:44;95971.84;;;11.28;100.00
20624;BME280;10471;42.736;23.346;2023-05-03T05:03:10;95982.69;;;11.32;100.00
20624;BME280;10471;42.736;23.346;2023-05-03T05:05:36;95986.38;;;11.21;100.00
20624;BME280;10471;42.736;23.346;2023-05-03T05:08:01;95991.63;;;11.26;100.00
20624;BME280;10471;42.736;23.346;2023-05-03T05:10:26;95987.97;;;11.22;100.00
20624;BME280;10471;42.736;23.346;2023-05-03T05:12:52;95986.09;;;11.17;100.00
20624;BME280;10471;42.736;23.346;2023-05-03T05:15:18;95992.16;;;11.08;100.00
20624;BME280;10471;42.736;23.346;2023-05-03T05:17:43;95994.78;;;11.03;100.00
20624;BME280;10471;42.736;23.346;2023-05-03T05:20:09;95992.13;;;10.98;100.00
20624;BME280;10471;42.736;23.346;2023-05-03T05:22:39;95984.75;;;10.90;100.00
20624;BME280;10471;42.736;23.346;2023-05-03T05:25:06;95993.44;;;10.86;100.00
20624;BME280;10471;42.736;23.346;2023-05-03T05:27:33;95991.84;;;10.90;100.00
20624;BME280;10471;42.736;23.346;2023-05-03T05:29:58;95993.72;;;10.89;100.00
20624;BME280;10471;42.736;23.346;2023-05-03T05:32:24;95993.44;;;10.96;100.00
20624;BME280;10471;42.736;23.346;2023-05-03T05:34:49;95998.47;;;11.02;100.00
20624;BME280;10471;42.736;23.346;2023-05-03T05:37:25;95997.97;;;11.05;100.00
20624;BME280;10471;42.736;23.346;2023-05-03T05:39:52;96001.66;;;11.19;100.00
20624;BME280;10471;42.736;23.346;2023-05-03T05:42:17;95988.72;;;11.22;100.00
20624;BME280;10471;42.736;23.346;2023-05-03T05:44:43;95998.50;;;11.22;100.00
20624;BME280;10471;42.736;23.346;2023-05-03T05:47:08;96002.19;;;11.41;100.00
20624;BME280;10471;42.736;23.346;2023-05-03T05:49:34;96004.84;;;11.56;100.00
20624;BME280;10471;42.736;23.346;2023-05-03T05:52:00;95994.28;;;11.76;100.00
20624;BME280;10471;42.736;23.346;2023-05-03T05:54:26;95993.44;;;11.95;100.00
20624;BME280;10471;42.736;23.346;2023-05-03T05:56:51;95981.25;;;12.04;100.00
20624;BME280;10471;42.736;23.346;2023-05-03T05:59:16;95989.69;;;12.16;100.00
20624;BME280;10471;42.736;23.346;2023-05-03T06:01:42;95997.59;;;12.21;99.83
20624;BME280;10471;42.736;23.346;2023-05-03T06:04:13;95996.22;;;12.33;95.31
20624;BME280;10471;42.736;23.346;2023-05-03T06:06:38;95988.31;;;12.28;93.07
20624;BME280;10471;42.736;23.346;2023-05-03T06:09:04;95981.75;;;12.21;95.18
20624;BME280;10471;42.736;23.346;2023-05-03T06:11:29;95980.41;;;12.23;100.00
20624;BME280;10471;42.736;23.346;2023-05-03T06:13:55;95987.63;;;12.08;100.00
20624;BME280;10471;42.736;23.346;2023-05-03T06:16:22;95982.09;;;11.94;100.00
20624;BME280;10471;42.736;23.346;2023-05-03T06:18:47;95985.81;;;11.93;100.00
20624;BME280;10471;42.736;23.346;2023-05-03T06:21:13;95989.25;;;11.79;100.00
20624;BME280;10471;42.736;23.346;2023-05-03T06:23:38;95983.19;;;11.78;100.00
20624;BME280;10471;42.736;23.346;2023-05-03T06:26:05;95991.13;;;11.74;100.00
20624;BME280;10471;42.736;23.346;2023-05-03T06:28:31;95987.41;;;11.75;100.00
20624;BME280;10471;42.736;23.346;2023-05-03T06:30:56;95989.50;;;11.82;100.00
20624;BME280;10471;42.736;23.346;2023-05-03T06:33:22;95985.81;;;11.93;100.00
20624;BME280;10471;42.736;23.346;2023-05-03T06:35:47;95984.47;;;11.96;100.00
20624;BME280;10471;42.736;23.346;2023-05-03T06:38:13;95976.25;;;12.07;100.00
20624;BME280;10471;42.736;23.346;2023-05-03T06:40:39;95969.34;;;12.16;100.00
20624;BME280;10471;42.736;23.346;2023-05-03T06:43:06;95968.78;;;12.29;100.00
20624;BME280;10471;42.736;23.346;2023-05-03T06:45:31;95967.94;;;12.39;100.00
20624;BME280;10471;42.736;23.346;2023-05-03T06:47:57;95962.34;;;12.45;100.00
20624;BME280;10471;42.736;23.346;2023-05-03T06:50:22;95954.91;;;12.57;100.00
20624;BME280;10471;42.736;23.346;2023-05-03T06:52:49;95948.47;;;12.73;99.23
20624;BME280;10471;42.736;23.346;2023-05-03T06:55:15;95945.75;;;12.88;97.56
20624;BME280;10471;42.736;23.346;2023-05-03T06:57:41;95946.22;;;12.95;98.69
20624;BME280;10471;42.736;23.346;2023-05-03T07:00:07;95942.47;;;13.01;100.00
20624;BME280;10471;42.736;23.346;2023-05-03T07:02:33;95934.63;;;12.91;98.31
20624;BME280;10471;42.736;23.346;2023-05-03T07:04:58;95925.91;;;12.90;100.00
20624;BME280;10471;42.736;23.346;2023-05-03T07:07:24;95927.44;;;12.96;98.88
20624;BME280;10471;42.736;23.346;2023-05-03T07:09:49;95927.50;;;12.86;98.93
20624;BME280;10471;42.736;23.346;2023-05-03T07:12:15;95934.72;;;12.71;99.38
20624;BME280;10471;42.736;23.346;2023-05-03T07:14:40;95929.69;;;12.74;100.00
20624;BME280;10471;42.736;23.346;2023-05-03T07:17:06;95944.22;;;12.77;100.00
20624;BME280;10471;42.736;23.346;2023-05-03T07:19:32;95937.41;;;12.66;98.86
20624;BME280;10471;42.736;23.346;2023-05-03T07:21:57;95948.22;;;12.69;100.00
20624;BME280;10471;42.736;23.346;2023-05-03T07:24:23;95950.53;;;12.81;100.00
20624;BME280;10471;42.736;23.346;2023-05-03T07:26:52;95955.28;;;12.79;100.00
20624;BME280;10471;42.736;23.346;2023-05-03T07:29:17;95956.34;;;12.83;96.80
20624;BME280;10471;42.736;23.346;2023-05-03T07:31:43;95950.78;;;12.84;96.38
20624;BME280;10471;42.736;23.346;2023-05-03T07:34:11;95939.38;;;12.84;100.00
20624;BME280;10471;42.736;23.346;2023-05-03T07:36:38;95943.13;;;12.88;97.00
20624;BME280;10471;42.736;23.346;2023-05-03T07:39:03;95962.03;;;13.05;96.04
20624;BME280;10471;42.736;23.346;2023-05-03T07:41:29;95964.34;;;13.16;97.34
20624;BME280;10471;42.736;23.346;2023-05-03T07:43:55;95951.31;;;13.24;97.06
20624;BME280;10471;42.736;23.346;2023-05-03T07:46:20;95956.84;;;13.23;96.63
20624;BME280;10471;42.736;23.346;2023-05-03T07:48:46;95945.38;;;13.37;96.28
20624;BME280;10471;42.736;23.346;2023-05-03T07:51:11;95930.25;;;13.38;90.78
20624;BME280;10471;42.736;23.346;2023-05-03T07:53:37;95932.75;;;13.29;93.88
20624;BME280;10471;42.736;23.346;2023-05-03T07:56:05;95936.91;;;13.35;94.00
20624;BME280;10471;42.736;23.346;2023-05-03T07:58:31;95931.06;;;13.38;94.02
20624;BME280;10471;42.736;23.346;2023-05-03T08:00:56;95943.28;;;13.34;94.99
20624;BME280;10471;42.736;23.346;2023-05-03T08:03:22;95953.69;;;13.54;95.24
20624;BME280;10471;42.736;23.346;2023-05-03T08:05:48;95958.78;;;13.46;96.19
20624;BME280;10471;42.736;23.346;2023-05-03T08:08:14;95942.63;;;13.47;94.87
20624;BME280;10471;42.736;23.346;2023-05-03T08:10:39;95954.75;;;13.53;94.09
20624;BME280;10471;42.736;23.346;2023-05-03T08:13:05;95950.06;;;13.45;93.74
20624;BME280;10471;42.736;23.346;2023-05-03T08:15:31;95960.34;;;13.52;94.23
20624;BME280;10471;42.736;23.346;2023-05-03T08:17:56;95941.47;;;13.58;93.84
20624;BME280;10471;42.736;23.346;2023-05-03T08:20:22;95958.19;;;13.54;94.61
20624;BME280;10471;42.736;23.346;2023-05-03T08:22:47;95967.84;;;13.68;94.89
20624;BME280;10471;42.736;23.346;2023-05-03T08:25:13;95968.31;;;13.75;93.76
20624;BME280;10471;42.736;23.346;2023-05-03T08:27:40;95951.53;;;13.84;94.24
20624;BME280;10471;42.736;23.346;2023-05-03T08:30:06;95945.22;;;14.04;93.70
20624;BME280;10471;42.736;23.346;2023-05-03T08:32:32;95948.00;;;14.41;91.58
20624;BME280;10471;42.736;23.346;2023-05-03T08:34:58;95954.75;;;14.51;90.98
20624;BME280;10471;42.736;23.346;2023-05-03T08:37:24;95953.72;;;14.89;91.80
20624;BME280;10471;42.736;23.346;2023-05-03T08:39:49;95958.06;;;15.17;85.94
20624;BME280;10471;42.736;23.346;2023-05-03T08:42:15;95962.03;;;15.38;86.20
20624;BME280;10471;42.736;23.346;2023-05-03T08:44:46;95950.66;;;15.51;80.52
20624;BME280;10471;42.736;23.346;2023-05-03T08:47:16;95958.72;;;15.46;83.44
20624;BME280;10471;42.736;23.346;2023-05-03T08:49:42;95954.22;;;15.60;84.08
20624;BME280;10471;42.736;23.346;2023-05-03T08:52:09;95940.31;;;15.94;81.74
20624;BME280;10471;42.736;23.346;2023-05-03T08:54:37;95949.75;;;15.87;80.93
20624;BME280;10471;42.736;23.346;2023-05-03T08:57:03;95943.66;;;15.86;78.86
20624;BME280;10471;42.736;23.346;2023-05-03T08:59:29;95946.44;;;16.22;82.35
20624;BME280;10471;42.736;23.346;2023-05-03T09:01:54;95946.16;;;16.50;80.66
20624;BME280;10471;42.736;23.346;2023-05-03T09:04:32;95954.72;;;16.60;77.41
20624;BME280;10471;42.736;23.346;2023-05-03T09:07:07;95955.63;;;16.42;77.01
20624;BME280;10471;42.736;23.346;2023-05-03T09:09:32;95947.44;;;16.39;75.77
20624;BME280;10471;42.736;23.346;2023-05-03T09:11:58;95950.41;;;16.38;74.24
20624;BME280;10471;42.736;23.346;2023-05-03T09:14:23;95943.22;;;16.38;76.91
20624;BME280;10471;42.736;23.346;2023-05-03T09:16:49;95939.91;;;16.68;76.63
20624;BME280;10471;42.736;23.346;2023-05-03T09:19:15;95925.06;;;16.89;77.18
20624;BME280;10471;42.736;23.346;2023-05-03T09:21:42;95925.97;;;16.98;74.70
20624;BME280;10471;42.736;23.346;2023-05-03T09:24:18;95923.94;;;17.03;72.14
20624;BME280;10471;42.736;23.346;2023-05-03T09:26:45;95918.28;;;17.18;70.66
20624;BME280;10471;42.736;23.346;2023-05-03T09:29:29;95915.09;;;17.29;69.93
20624;BME280;10471;42.736;23.346;2023-05-03T09:32:00;95899.94;;;17.60;66.76
20624;BME280;10471;42.736;23.346;2023-05-03T09:34:25;95905.28;;;17.60;69.52
20624;BME280;10471;42.736;23.346;2023-05-03T09:36:51;95904.91;;;17.53;70.04
20624;BME280;10471;42.736;23.346;2023-05-03T09:39:17;95901.56;;;17.48;69.60
20624;BME280;10471;42.736;23.346;2023-05-03T09:41:44;95896.91;;;17.53;69.97
20624;BME280;10471;42.736;23.346;2023-05-03T09:44:09;95887.53;;;17.94;73.62
20624;BME280;10471;42.736;23.346;2023-05-03T09:46:35;95878.78;;;18.49;66.61
20624;BME280;10471;42.736;23.346;2023-05-03T09:49:01;95875.56;;;19.20;66.94
20624;BME280;10471;42.736;23.346;2023-05-03T09:51:28;95876.94;;;19.34;57.57
20624;BME280;10471;42.736;23.346;2023-05-03T09:53:55;95868.56;;;19.53;58.07
20624;BME280;10471;42.736;23.346;2023-05-03T09:56:20;95873.72;;;19.66;54.93
20624;BME280;10471;42.736;23.346;2023-05-03T09:58:54;95879.75;;;19.38;58.32
20624;BME280;10471;42.736;23.346;2023-05-03T10:01:19;95875.69;;;19.32;58.37
20624;BME280;10471;42.736;23.346;2023-05-03T10:03:50;95879.59;;;19.43;57.40
20624;BME280;10471;42.736;23.346;2023-05-03T10:06:35;95872.81;;;19.54;58.19
20624;BME280;10471;42.736;23.346;2023-05-03T10:09:05;95860.59;;;19.98;57.66
20624;BME280;10471;42.736;23.346;2023-05-03T10:11:36;95855.97;;;20.36;55.93
20624;BME280;10471;42.736;23.346;2023-05-03T10:14:04;95853.69;;;20.75;53.81
20624;BME280;10471;42.736;23.346;2023-05-03T10:16:38;95854.00;;;20.25;53.97
20624;BME280;10471;42.736;23.346;2023-05-03T10:19:29;95854.63;;;19.84;53.66
20624;BME280;10471;42.736;23.346;2023-05-03T10:22:05;95862.41;;;19.69;54.01
20624;BME280;10471;42.736;23.346;2023-05-03T10:24:32;95847.41;;;19.76;55.64
20624;BME280;10471;42.736;23.346;2023-05-03T10:26:58;95836.50;;;19.98;56.31
20624;BME280;10471;42.736;23.346;2023-05-03T10:32:50;95826.50;;;20.65;54.07
20624;BME280;10471;42.736;23.346;2023-05-03T10:35:16;95815.78;;;20.65;53.28
20624;BME280;10471;42.736;23.346;2023-05-03T10:37:44;95805.94;;;20.28;54.62
20624;BME280;10471;42.736;23.346;2023-05-03T10:40:14;95806.22;;;20.06;55.94
20624;BME280;10471;42.736;23.346;2023-05-03T10:42:50;95803.50;;;20.15;56.13
20624;BME280;10471;42.736;23.346;2023-05-03T10:45:25;95809.63;;;20.44;54.08
20624;BME280;10471;42.736;23.346;2023-05-03T10:50:38;95815.38;;;20.95;55.40
20624;BME280;10471;42.736;23.346;2023-05-03T10:53:03;95807.75;;;20.85;54.53
20624;BME280;10471;42.736;23.346;2023-05-03T10:55:29;95814.19;;;20.64;55.12
20624;BME280;10471;42.736;23.346;2023-05-03T10:57:56;95820.81;;;20.17;56.03
20624;BME280;10471;42.736;23.346;2023-05-03T11:05:47;95818.00;;;19.76;57.55
20624;BME280;10471;42.736;23.346;2023-05-03T11:08:21;95825.72;;;19.70;59.34
20624;BME280;10471;42.736;23.346;2023-05-03T11:10:48;95814.16;;;19.49;58.82
20624;BME280;10471;42.736;23.346;2023-05-03T11:13:14;95810.03;;;19.60;57.93
20624;BME280;10471;42.736;23.346;2023-05-03T11:15:40;95809.56;;;19.58;58.55
20624;BME280;10471;42.736;23.346;2023-05-03T11:18:09;95804.69;;;19.60;57.92
20624;BME280;10471;42.736;23.346;2023-05-03T11:20:38;95799.63;;;19.67;59.53
20624;BME280;10471;42.736;23.346;2023-05-03T11:23:04;95801.94;;;20.14;58.21
20624;BME280;10471;42.736;23.346;2023-05-03T11:25:31;95802.88;;;20.09;55.70
20624;BME280;10471;42.736;23.346;2023-05-03T11:27:58;95812.00;;;20.17;57.17
20624;BME280;10471;42.736;23.346;2023-05-03T11:30:23;95801.94;;;20.14;55.79
20624;BME280;10471;42.736;23.346;2023-05-03T11:32:49;95803.84;;;20.13;57.86
20624;BME280;10471;42.736;23.346;2023-05-03T11:35:15;95794.31;;;20.24;56.78
20624;BME280;10471;42.736;23.346;2023-05-03T11:37:42;95782.03;;;20.23;58.24
20624;BME280;10471;42.736;23.346;2023-05-03T11:40:17;95796.53;;;20.22;57.29
20624;BME280;10471;42.736;23.346;2023-05-03T11:42:55;95801.22;;;20.25;58.17
20624;BME280;10471;42.736;23.346;2023-05-03T11:45:22;95803.97;;;20.37;58.32
20624;BME280;10471;42.736;23.346;2023-05-03T11:47:49;95785.81;;;20.22;57.06
20624;BME280;10471;42.736;23.346;2023-05-03T11:50:15;95788.44;;;20.31;58.00
20624;BME280;10471;42.736;23.346;2023-05-03T11:52:41;95785.50;;;20.44;57.22
20624;BME280;10471;42.736;23.346;2023-05-03T11:55:07;95772.19;;;20.07;58.35
20624;BME280;10471;42.736;23.346;2023-05-03T11:57:35;95769.53;;;20.07;60.49
20624;BME280;10471;42.736;23.346;2023-05-03T12:00:11;95775.69;;;20.07;61.63
20624;BME280;10471;42.736;23.346;2023-05-03T12:02:39;95773.00;;;20.28;56.96
20624;BME280;10471;42.736;23.346;2023-05-03T12:05:05;95777.16;;;19.96;57.71
20624;BME280;10471;42.736;23.346;2023-05-03T12:07:31;95781.13;;;20.40;60.03
20624;BME280;10471;42.736;23.346;2023-05-03T12:09:57;95777.22;;;20.37;57.77
20624;BME280;10471;42.736;23.346;2023-05-03T12:12:22;95768.59;;;20.52;59.12
20624;BME280;10471;42.736;23.346;2023-05-03T12:14:58;95762.78;;;20.91;58.34
20624;BME280;10471;42.736;23.346;2023-05-03T12:17:37;95755.94;;;20.61;56.20
20624;BME280;10471;42.736;23.346;2023-05-03T12:20:20;95761.53;;;20.27;58.61
20624;BME280;10471;42.736;23.346;2023-05-03T12:22:50;95756.66;;;20.00;62.02
20624;BME280;10471;42.736;23.346;2023-05-03T12:25:15;95770.88;;;19.55;63.08
20624;BME280;10471;42.736;23.346;2023-05-03T12:27:41;95750.91;;;19.53;65.70
20624;BME280;10471;42.736;23.346;2023-05-03T12:30:06;95756.03;;;19.29;66.94
20624;BME280;10471;42.736;23.346;2023-05-03T12:32:34;95762.38;;;18.99;67.11
20624;BME280;10471;42.736;23.346;2023-05-03T12:35:00;95766.66;;;18.75;69.87
20624;BME280;10471;42.736;23.346;2023-05-03T12:37:25;95759.59;;;18.53;69.29
20624;BME280;10471;42.736;23.346;2023-05-03T12:39:51;95760.69;;;18.61;74.08
20624;BME280;10471;42.736;23.346;2023-05-03T12:42:16;95760.06;;;18.55;72.92
20624;BME280;10471;42.736;23.346;2023-05-03T12:44:41;95759.59;;;18.53;72.84
20624;BME280;10471;42.736;23.346;2023-05-03T12:47:08;95761.50;;;18.28;72.88
20624;BME280;10471;42.736;23.346;2023-05-03T12:49:34;95752.00;;;18.05;75.17
20624;BME280;10471;42.736;23.346;2023-05-03T12:51:59;95752.31;;;17.95;77.25
20624;BME280;10471;42.736;23.346;2023-05-03T12:54:25;95750.06;;;17.80;78.07
20624;BME280;10471;42.736;23.346;2023-05-03T12:56:51;95750.03;;;17.63;78.79
20624;BME280;10471;42.736;23.346;2023-05-03T12:59:16;95751.06;;;17.45;80.17
20624;BME280;10471;42.736;23.346;2023-05-03T13:01:42;95750.72;;;17.38;82.96
20624;BME280;10471;42.736;23.346;2023-05-03T13:04:08;95742.00;;;17.24;85.02
20624;BME280;10471;42.736;23.346;2023-05-03T13:06:33;95747.19;;;17.21;87.79